sensor_id;sensor_type;location;lat;lon;timestamp;P1;durP1;ratioP1;P2;durP2;ratioP2
2860;SDS011;1438;50.922;6.704;2023-05-10T00:02:07;30.50;;;17.27;;
2860;SDS011;1438;50.922;6.704;2023-05-10T00:04:33;30.03;;;17.40;;
2860;SDS011;1438;50.922;6.704;2023-05-10T00:06:59;31.60;;;17.90;;
2860;SDS011;1438;50.922;6.704;2023-05-10T00:09:25;26.40;;;16.30;;
2860;SDS011;1438;50.922;6.704;2023-05-10T00:11:51;34.63;;;16.30;;
2860;SDS011;1438;50.922;6.704;2023-05-10T00:14:17;28.63;;;16.10;;
2860;SDS011;1438;50.922;6.704;2023-05-10T00:16:43;26.90;;;17.33;;
2860;SDS011;1438;50.922;6.704;2023-05-10T00:19:09;29.97;;;17.27;;
2860;SDS011;1438;50.922;6.704;2023-05-10T00:21:35;33.90;;;18.37;;
2860;SDS011;1438;50.922;6.704;2023-05-10T00:24:01;31.03;;;18.67;;
2860;SDS011;1438;50.922;6.704;2023-05-10T00:26:27;32.60;;;19.07;;
2860;SDS011;1438;50.922;6.704;2023-05-10T00:28:53;26.10;;;16.50;;
2860;SDS011;1438;50.922;6.704;2023-05-10T00:31:19;38.30;;;19.00;;
2860;SDS011;1438;50.922;6.704;2023-05-10T00:33:45;33.30;;;19.50;;
2860;SDS011;1438;50.922;6.704;2023-05-10T00:36:11;30.20;;;18.80;;
2860;SDS011;1438;50.922;6.704;2023-05-10T00:38:37;32.43;;;18.70;;
2860;SDS011;1438;50.922;6.704;2023-05-10T00:41:03;28.40;;;17.67;;
2860;SDS011;1438;50.922;6.704;2023-05-10T00:43:29;38.87;;;19.53;;
2860;SDS011;1438;50.922;6.704;2023-05-10T00:45:55;40.97;;;20.20;;
2860;SDS011;1438;50.922;6.704;2023-05-10T00:48:21;35.47;;;18.90;;
2860;SDS011;1438;50.922;6.704;2023-05-10T00:50:47;34.20;;;19.13;;
2860;SDS011;1438;50.922;6.704;2023-05-10T00:53:14;32.73;;;19.07;;
2860;SDS011;1438;50.922;6.704;2023-05-10T00:55:40;30.53;;;18.60;;
2860;SDS011;1438;50.922;6.704;2023-05-10T00:58:06;28.40;;;17.00;;
2860;SDS011;1438;50.922;6.704;2023-05-10T01:00:33;29.47;;;17.10;;
2860;SDS011;1438;50.922;6.704;2023-05-10T01:02:59;34.63;;;17.53;;
2860;SDS011;1438;50.922;6.704;2023-05-10T01:05:26;29.20;;;17.40;;
2860;SDS011;1438;50.922;6.704;2023-05-10T01:07:52;29.70;;;16.07;;
2860;SDS011;1438;50.922;6.704;2023-05-10T01:10:18;24.37;;;14.73;;
2860;SDS011;1438;50.922;6.704;2023-05-10T01:12:45;29.20;;;17.47;;
2860;SDS011;1438;50.922;6.704;2023-05-10T01:15:12;25.57;;;14.90;;
2860;SDS011;1438;50.922;6.704;2023-05-10T01:17:39;25.45;;;14.60;;
2860;SDS011;1438;50.922;6.704;2023-05-10T01:20:06;26.83;;;15.70;;
2860;SDS011;1438;50.922;6.704;2023-05-10T01:22:39;28.00;;;16.17;;
2860;SDS011;1438;50.922;6.704;2023-05-10T01:38:33;26.97;;;15.83;;
2860;SDS011;1438;50.922;6.704;2023-05-10T01:43:33;30.90;;;16.60;;
2860;SDS011;1438;50.922;6.704;2023-05-10T01:46:03;31.17;;;18.27;;
2860;SDS011;1438;50.922;6.704;2023-05-10T01:48:35;31.63;;;16.40;;
2860;SDS011;1438;50.922;6.704;2023-05-10T01:51:02;37.30;;;17.57;;
2860;SDS011;1438;50.922;6.704;2023-05-10T01:53:29;36.00;;;18.40;;
2860;SDS011;1438;50.922;6.704;2023-05-10T01:55:56;35.37;;;18.67;;
2860;SDS011;1438;50.922;6.704;2023-05-10T01:58:24;36.23;;;18.77;;
2860;SDS011;1438;50.922;6.704;2023-05-10T02:00:51;33.50;;;18.67;;
2860;SDS011;1438;50.922;6.704;2023-05-10T02:03:18;41.27;;;18.60;;
2860;SDS011;1438;50.922;6.704;2023-05-10T02:05:46;33.90;;;17.47;;
2860;SDS011;1438;50.922;6.704;2023-05-10T02:08:13;34.97;;;19.33;;
2860;SDS011;1438;50.922;6.704;2023-05-10T02:10:40;36.40;;;18.97;;
2860;SDS011;1438;50.922;6.704;2023-05-10T02:13:07;32.60;;;18.80;;
2860;SDS011;1438;50.922;6.704;2023-05-10T02:15:33;39.97;;;21.57;;
2860;SDS011;1438;50.922;6.704;2023-05-10T02:18:00;32.00;;;18.70;;
2860;SDS011;1438;50.922;6.704;2023-05-10T02:20:26;29.90;;;17.63;;
2860;SDS011;1438;50.922;6.704;2023-05-10T02:22:53;39.07;;;20.67;;
2860;SDS011;1438;50.922;6.704;2023-05-10T02:25:20;35.73;;;17.30;;
2860;SDS011;1438;50.922;6.704;2023-05-10T02:27:47;27.80;;;17.33;;
2860;SDS011;1438;50.922;6.704;2023-05-10T02:30:13;26.47;;;15.93;;
2860;SDS011;1438;50.922;6.704;2023-05-10T02:32:40;27.60;;;15.40;;
2860;SDS011;1438;50.922;6.704;2023-05-10T02:35:06;31.60;;;16.87;;
2860;SDS011;1438;50.922;6.704;2023-05-10T02:37:33;24.52;;;14.05;;
2860;SDS011;1438;50.922;6.704;2023-05-10T02:39:59;27.90;;;15.13;;
2860;SDS011;1438;50.922;6.704;2023-05-10T02:42:31;25.10;;;15.07;;
2860;SDS011;1438;50.922;6.704;2023-05-10T02:45:01;23.63;;;13.60;;
2860;SDS011;1438;50.922;6.704;2023-05-10T02:47:28;22.80;;;14.03;;
2860;SDS011;1438;50.922;6.704;2023-05-10T02:49:54;26.03;;;13.83;;
2860;SDS011;1438;50.922;6.704;2023-05-10T02:52:25;19.57;;;12.67;;
2860;SDS011;1438;50.922;6.704;2023-05-10T02:54:54;22.70;;;12.80;;
2860;SDS011;1438;50.922;6.704;2023-05-10T02:57:22;21.77;;;12.30;;
2860;SDS011;1438;50.922;6.704;2023-05-10T02:59:50;20.45;;;12.27;;
2860;SDS011;1438;50.922;6.704;2023-05-10T03:02:16;27.20;;;13.85;;
2860;SDS011;1438;50.922;6.704;2023-05-10T03:04:42;24.90;;;13.73;;
2860;SDS011;1438;50.922;6.704;2023-05-10T03:07:08;20.17;;;12.47;;
2860;SDS011;1438;50.922;6.704;2023-05-10T03:09:34;19.23;;;12.07;;
2860;SDS011;1438;50.922;6.704;2023-05-10T03:12:11;26.03;;;14.23;;
2860;SDS011;1438;50.922;6.704;2023-05-10T03:17:10;27.33;;;15.03;;
2860;SDS011;1438;50.922;6.704;2023-05-10T03:19:43;25.80;;;14.53;;
2860;SDS011;1438;50.922;6.704;2023-05-10T03:22:16;22.17;;;14.27;;
2860;SDS011;1438;50.922;6.704;2023-05-10T03:24:44;24.07;;;14.00;;
2860;SDS011;1438;50.922;6.704;2023-05-10T03:27:11;22.27;;;14.10;;
2860;SDS011;1438;50.922;6.704;2023-05-10T03:29:37;24.13;;;12.53;;
2860;SDS011;1438;50.922;6.704;2023-05-10T03:32:03;26.37;;;14.53;;
2860;SDS011;1438;50.922;6.704;2023-05-10T03:34:30;23.87;;;14.53;;
2860;SDS011;1438;50.922;6.704;2023-05-10T03:36:59;28.57;;;15.27;;
2860;SDS011;1438;50.922;6.704;2023-05-10T03:39:25;32.10;;;17.50;;
2860;SDS011;1438;50.922;6.704;2023-05-10T03:41:51;37.37;;;19.00;;
2860;SDS011;1438;50.922;6.704;2023-05-10T03:44:17;39.67;;;22.00;;
2860;SDS011;1438;50.922;6.704;2023-05-10T03:46:43;42.60;;;22.90;;
2860;SDS011;1438;50.922;6.704;2023-05-10T03:49:09;41.47;;;22.07;;
2860;SDS011;1438;50.922;6.704;2023-05-10T03:51:35;40.33;;;22.23;;
2860;SDS011;1438;50.922;6.704;2023-05-10T03:54:01;38.30;;;23.07;;
2860;SDS011;1438;50.922;6.704;2023-05-10T03:56:27;45.57;;;23.20;;
2860;SDS011;1438;50.922;6.704;2023-05-10T03:58:53;39.67;;;23.17;;
2860;SDS011;1438;50.922;6.704;2023-05-10T04:01:19;32.47;;;20.10;;
2860;SDS011;1438;50.922;6.704;2023-05-10T04:03:45;42.43;;;23.37;;
2860;SDS011;1438;50.922;6.704;2023-05-10T04:06:11;43.10;;;24.00;;
2860;SDS011;1438;50.922;6.704;2023-05-10T04:08:37;43.37;;;22.47;;
2860;SDS011;1438;50.922;6.704;2023-05-10T04:11:07;43.43;;;25.33;;
2860;SDS011;1438;50.922;6.704;2023-05-10T04:13:33;35.60;;;23.97;;
2860;SDS011;1438;50.922;6.704;2023-05-10T04:15:59;47.27;;;23.13;;
2860;SDS011;1438;50.922;6.704;2023-05-10T04:18:25;40.47;;;24.00;;
2860;SDS011;1438;50.922;6.704;2023-05-10T04:20:51;40.37;;;24.90;;
2860;SDS011;1438;50.922;6.704;2023-05-10T04:23:18;44.10;;;24.50;;
2860;SDS011;1438;50.922;6.704;2023-05-10T04:25:44;45.53;;;24.10;;
2860;SDS011;1438;50.922;6.704;2023-05-10T04:28:09;45.40;;;24.23;;
2860;SDS011;1438;50.922;6.704;2023-05-10T04:30:35;43.00;;;23.87;;
2860;SDS011;1438;50.922;6.704;2023-05-10T04:33:01;41.20;;;24.23;;
2860;SDS011;1438;50.922;6.704;2023-05-10T04:35:28;44.57;;;23.80;;
2860;SDS011;1438;50.922;6.704;2023-05-10T04:37:54;41.07;;;23.80;;
2860;SDS011;1438;50.922;6.704;2023-05-10T04:40:20;38.27;;;22.23;;
2860;SDS011;1438;50.922;6.704;2023-05-10T04:42:46;50.33;;;23.77;;
2860;SDS011;1438;50.922;6.704;2023-05-10T04:45:12;39.33;;;24.43;;
2860;SDS011;1438;50.922;6.704;2023-05-10T04:47:39;48.33;;;23.77;;
2860;SDS011;1438;50.922;6.704;2023-05-10T04:50:05;35.00;;;22.60;;
2860;SDS011;1438;50.922;6.704;2023-05-10T04:52:32;45.67;;;23.93;;
2860;SDS011;1438;50.922;6.704;2023-05-10T04:54:58;40.30;;;22.23;;
2860;SDS011;1438;50.922;6.704;2023-05-10T04:57:24;44.55;;;22.85;;
2860;SDS011;1438;50.922;6.704;2023-05-10T04:59:50;40.90;;;22.27;;
2860;SDS011;1438;50.922;6.704;2023-05-10T05:02:16;44.17;;;22.17;;
2860;SDS011;1438;50.922;6.704;2023-05-10T05:04:42;47.47;;;20.87;;
2860;SDS011;1438;50.922;6.704;2023-05-10T05:07:08;36.73;;;21.43;;
2860;SDS011;1438;50.922;6.704;2023-05-10T05:09:34;44.63;;;21.63;;
2860;SDS011;1438;50.922;6.704;2023-05-10T05:12:01;43.40;;;22.43;;
2860;SDS011;1438;50.922;6.704;2023-05-10T05:14:27;42.42;;;20.30;;
2860;SDS011;1438;50.922;6.704;2023-05-10T05:16:53;37.37;;;20.47;;
2860;SDS011;1438;50.922;6.704;2023-05-10T05:19:19;38.10;;;20.60;;
2860;SDS011;1438;50.922;6.704;2023-05-10T05:21:45;37.90;;;19.10;;
2860;SDS011;1438;50.922;6.704;2023-05-10T05:24:11;40.17;;;20.37;;
2860;SDS011;1438;50.922;6.704;2023-05-10T05:26:37;39.97;;;18.90;;
2860;SDS011;1438;50.922;6.704;2023-05-10T05:29:03;35.90;;;19.80;;
2860;SDS011;1438;50.922;6.704;2023-05-10T05:31:29;40.78;;;20.20;;
2860;SDS011;1438;50.922;6.704;2023-05-10T05:33:55;43.27;;;20.80;;
2860;SDS011;1438;50.922;6.704;2023-05-10T05:36:21;33.60;;;18.33;;
2860;SDS011;1438;50.922;6.704;2023-05-10T05:38:47;36.40;;;18.77;;
2860;SDS011;1438;50.922;6.704;2023-05-10T05:41:14;36.20;;;16.97;;
2860;SDS011;1438;50.922;6.704;2023-05-10T05:43:40;29.00;;;18.03;;
2860;SDS011;1438;50.922;6.704;2023-05-10T05:46:06;36.57;;;18.33;;
2860;SDS011;1438;50.922;6.704;2023-05-10T05:48:31;34.47;;;19.30;;
2860;SDS011;1438;50.922;6.704;2023-05-10T05:50:57;33.63;;;17.37;;
2860;SDS011;1438;50.922;6.704;2023-05-10T05:53:24;29.47;;;16.07;;
2860;SDS011;1438;50.922;6.704;2023-05-10T05:55:50;29.73;;;18.87;;
2860;SDS011;1438;50.922;6.704;2023-05-10T05:58:17;31.70;;;17.40;;
2860;SDS011;1438;50.922;6.704;2023-05-10T06:00:43;33.20;;;17.03;;
2860;SDS011;1438;50.922;6.704;2023-05-10T06:03:09;30.38;;;18.33;;
2860;SDS011;1438;50.922;6.704;2023-05-10T06:05:35;32.20;;;17.17;;
2860;SDS011;1438;50.922;6.704;2023-05-10T06:08:01;35.43;;;17.67;;
2860;SDS011;1438;50.922;6.704;2023-05-10T06:10:27;27.93;;;17.10;;
2860;SDS011;1438;50.922;6.704;2023-05-10T06:12:53;25.47;;;17.57;;
2860;SDS011;1438;50.922;6.704;2023-05-10T06:15:19;28.90;;;18.47;;
2860;SDS011;1438;50.922;6.704;2023-05-10T06:17:45;31.10;;;17.53;;
2860;SDS011;1438;50.922;6.704;2023-05-10T06:20:14;30.10;;;15.43;;
2860;SDS011;1438;50.922;6.704;2023-05-10T06:22:40;31.17;;;17.43;;
2860;SDS011;1438;50.922;6.704;2023-05-10T06:25:06;27.67;;;17.47;;
2860;SDS011;1438;50.922;6.704;2023-05-10T06:27:32;30.17;;;17.60;;
2860;SDS011;1438;50.922;6.704;2023-05-10T06:29:58;30.13;;;17.43;;
2860;SDS011;1438;50.922;6.704;2023-05-10T06:32:24;28.80;;;17.83;;
2860;SDS011;1438;50.922;6.704;2023-05-10T06:34:50;31.83;;;19.17;;
2860;SDS011;1438;50.922;6.704;2023-05-10T06:37:16;33.80;;;18.20;;
2860;SDS011;1438;50.922;6.704;2023-05-10T06:39:42;31.47;;;20.70;;
2860;SDS011;1438;50.922;6.704;2023-05-10T06:42:08;33.03;;;18.13;;
2860;SDS011;1438;50.922;6.704;2023-05-10T06:44:34;31.50;;;17.43;;
2860;SDS011;1438;50.922;6.704;2023-05-10T06:47:00;29.73;;;17.67;;
2860;SDS011;1438;50.922;6.704;2023-05-10T06:49:26;41.17;;;20.53;;
2860;SDS011;1438;50.922;6.704;2023-05-10T06:51:52;35.77;;;20.23;;
2860;SDS011;1438;50.922;6.704;2023-05-10T06:54:18;38.50;;;19.33;;
2860;SDS011;1438;50.922;6.704;2023-05-10T06:56:44;37.63;;;18.20;;
2860;SDS011;1438;50.922;6.704;2023-05-10T06:59:10;29.73;;;19.33;;
2860;SDS011;1438;50.922;6.704;2023-05-10T07:01:37;35.07;;;19.67;;
2860;SDS011;1438;50.922;6.704;2023-05-10T07:04:03;29.93;;;18.47;;
2860;SDS011;1438;50.922;6.704;2023-05-10T07:06:29;36.03;;;19.10;;
2860;SDS011;1438;50.922;6.704;2023-05-10T07:08:55;34.40;;;19.20;;
2860;SDS011;1438;50.922;6.704;2023-05-10T07:11:22;36.03;;;18.50;;
2860;SDS011;1438;50.922;6.704;2023-05-10T07:13:48;30.63;;;18.80;;
2860;SDS011;1438;50.922;6.704;2023-05-10T07:16:14;37.13;;;20.30;;
2860;SDS011;1438;50.922;6.704;2023-05-10T07:18:40;33.23;;;19.57;;
2860;SDS011;1438;50.922;6.704;2023-05-10T07:21:06;37.37;;;21.13;;
2860;SDS011;1438;50.922;6.704;2023-05-10T07:23:32;38.80;;;19.90;;
2860;SDS011;1438;50.922;6.704;2023-05-10T07:25:58;37.03;;;22.80;;
2860;SDS011;1438;50.922;6.704;2023-05-10T07:28:24;37.17;;;19.90;;
2860;SDS011;1438;50.922;6.704;2023-05-10T07:30:50;40.00;;;21.13;;
2860;SDS011;1438;50.922;6.704;2023-05-10T07:33:16;34.23;;;20.00;;
2860;SDS011;1438;50.922;6.704;2023-05-10T07:35:42;38.20;;;19.97;;
2860;SDS011;1438;50.922;6.704;2023-05-10T07:38:08;34.17;;;18.73;;
2860;SDS011;1438;50.922;6.704;2023-05-10T07:40:36;36.83;;;20.73;;
2860;SDS011;1438;50.922;6.704;2023-05-10T07:43:03;33.63;;;19.43;;
2860;SDS011;1438;50.922;6.704;2023-05-10T07:45:29;32.60;;;20.03;;
2860;SDS011;1438;50.922;6.704;2023-05-10T07:47:55;33.47;;;18.47;;
2860;SDS011;1438;50.922;6.704;2023-05-10T07:50:21;28.20;;;16.63;;
2860;SDS011;1438;50.922;6.704;2023-05-10T07:52:47;37.77;;;18.17;;
2860;SDS011;1438;50.922;6.704;2023-05-10T07:55:13;26.40;;;16.60;;
2860;SDS011;1438;50.922;6.704;2023-05-10T07:57:39;20.70;;;13.57;;
2860;SDS011;1438;50.922;6.704;2023-05-10T08:00:06;23.87;;;14.40;;
2860;SDS011;1438;50.922;6.704;2023-05-10T08:02:32;24.07;;;14.13;;
2860;SDS011;1438;50.922;6.704;2023-05-10T08:04:58;19.67;;;12.30;;
2860;SDS011;1438;50.922;6.704;2023-05-10T08:07:24;25.37;;;11.67;;
2860;SDS011;1438;50.922;6.704;2023-05-10T08:09:50;15.97;;;10.13;;
2860;SDS011;1438;50.922;6.704;2023-05-10T08:12:16;17.30;;;11.10;;
2860;SDS011;1438;50.922;6.704;2023-05-10T08:14:42;25.23;;;12.60;;
2860;SDS011;1438;50.922;6.704;2023-05-10T08:17:08;27.63;;;14.30;;
2860;SDS011;1438;50.922;6.704;2023-05-10T08:19:34;20.53;;;13.10;;
2860;SDS011;1438;50.922;6.704;2023-05-10T08:22:01;24.13;;;13.83;;
2860;SDS011;1438;50.922;6.704;2023-05-10T08:24:27;26.23;;;15.83;;
2860;SDS011;1438;50.922;6.704;2023-05-10T08:26:53;27.53;;;14.77;;
2860;SDS011;1438;50.922;6.704;2023-05-10T08:29:19;28.23;;;17.07;;
2860;SDS011;1438;50.922;6.704;2023-05-10T08:31:44;25.93;;;14.73;;
2860;SDS011;1438;50.922;6.704;2023-05-10T08:34:11;22.47;;;14.50;;
2860;SDS011;1438;50.922;6.704;2023-05-10T08:36:36;25.67;;;15.77;;
2860;SDS011;1438;50.922;6.704;2023-05-10T08:39:03;28.20;;;16.67;;
2860;SDS011;1438;50.922;6.704;2023-05-10T08:41:29;24.83;;;15.07;;
2860;SDS011;1438;50.922;6.704;2023-05-10T08:43:55;25.03;;;15.97;;
2860;SDS011;1438;50.922;6.704;2023-05-10T08:46:22;27.10;;;16.00;;
2860;SDS011;1438;50.922;6.704;2023-05-10T08:48:48;20.07;;;12.63;;
2860;SDS011;1438;50.922;6.704;2023-05-10T08:51:18;21.27;;;12.60;;
2860;SDS011;1438;50.922;6.704;2023-05-10T08:53:45;13.90;;;10.53;;
2860;SDS011;1438;50.922;6.704;2023-05-10T08:56:11;18.90;;;12.47;;
2860;SDS011;1438;50.922;6.704;2023-05-10T08:58:38;14.00;;;8.90;;
2860;SDS011;1438;50.922;6.704;2023-05-10T09:01:04;11.17;;;8.63;;
2860;SDS011;1438;50.922;6.704;2023-05-10T09:03:31;9.70;;;7.60;;
2860;SDS011;1438;50.922;6.704;2023-05-10T09:05:57;11.97;;;8.40;;
2860;SDS011;1438;50.922;6.704;2023-05-10T09:08:23;9.40;;;7.60;;
2860;SDS011;1438;50.922;6.704;2023-05-10T09:10:50;12.30;;;7.73;;
2860;SDS011;1438;50.922;6.704;2023-05-10T09:13:17;14.67;;;9.77;;
2860;SDS011;1438;50.922;6.704;2023-05-10T09:15:43;16.83;;;10.40;;
2860;SDS011;1438;50.922;6.704;2023-05-10T09:18:09;24.43;;;14.63;;
2860;SDS011;1438;50.922;6.704;2023-05-10T09:20:35;30.03;;;16.00;;
2860;SDS011;1438;50.922;6.704;2023-05-10T09:23:01;31.03;;;17.27;;
2860;SDS011;1438;50.922;6.704;2023-05-10T09:25:27;34.70;;;16.13;;
2860;SDS011;1438;50.922;6.704;2023-05-10T09:27:53;26.30;;;15.20;;
2860;SDS011;1438;50.922;6.704;2023-05-10T09:30:24;22.50;;;14.90;;
2860;SDS011;1438;50.922;6.704;2023-05-10T09:32:50;20.60;;;13.30;;
2860;SDS011;1438;50.922;6.704;2023-05-10T09:35:18;21.47;;;12.73;;
2860;SDS011;1438;50.922;6.704;2023-05-10T09:37:45;21.23;;;14.27;;
2860;SDS011;1438;50.922;6.704;2023-05-10T09:40:13;18.97;;;12.43;;
2860;SDS011;1438;50.922;6.704;2023-05-10T09:42:40;18.83;;;11.83;;
2860;SDS011;1438;50.922;6.704;2023-05-10T09:45:06;15.50;;;11.53;;
2860;SDS011;1438;50.922;6.704;2023-05-10T09:47:33;17.13;;;11.17;;
2860;SDS011;1438;50.922;6.704;2023-05-10T09:49:59;14.30;;;9.60;;
2860;SDS011;1438;50.922;6.704;2023-05-10T09:52:28;12.80;;;8.17;;
2860;SDS011;1438;50.922;6.704;2023-05-10T09:54:54;12.37;;;8.97;;
2860;SDS011;1438;50.922;6.704;2023-05-10T09:57:21;12.03;;;8.57;;
2860;SDS011;1438;50.922;6.704;2023-05-10T09:59:47;14.90;;;10.00;;
2860;SDS011;1438;50.922;6.704;2023-05-10T10:02:14;16.50;;;9.10;;
2860;SDS011;1438;50.922;6.704;2023-05-10T10:04:40;14.17;;;10.13;;
2860;SDS011;1438;50.922;6.704;2023-05-10T10:07:06;19.50;;;12.30;;
2860;SDS011;1438;50.922;6.704;2023-05-10T10:09:33;18.47;;;10.27;;
2860;SDS011;1438;50.922;6.704;2023-05-10T10:12:00;15.67;;;11.63;;
2860;SDS011;1438;50.922;6.704;2023-05-10T10:14:26;17.87;;;10.73;;
2860;SDS011;1438;50.922;6.704;2023-05-10T10:16:53;22.33;;;14.17;;
2860;SDS011;1438;50.922;6.704;2023-05-10T10:19:19;19.20;;;11.50;;
2860;SDS011;1438;50.922;6.704;2023-05-10T10:21:45;16.07;;;11.50;;
2860;SDS011;1438;50.922;6.704;2023-05-10T10:24:11;16.83;;;9.73;;
2860;SDS011;1438;50.922;6.704;2023-05-10T10:26:37;13.77;;;10.30;;
2860;SDS011;1438;50.922;6.704;2023-05-10T10:29:18;12.67;;;9.17;;
2860;SDS011;1438;50.922;6.704;2023-05-10T10:31:46;10.20;;;6.83;;
2860;SDS011;1438;50.922;6.704;2023-05-10T10:34:33;7.73;;;6.60;;
2860;SDS011;1438;50.922;6.704;2023-05-10T10:37:03;6.97;;;6.10;;
2860;SDS011;1438;50.922;6.704;2023-05-10T10:39:29;5.90;;;5.30;;
2860;SDS011;1438;50.922;6.704;2023-05-10T10:41:56;7.00;;;4.67;;
2860;SDS011;1438;50.922;6.704;2023-05-10T10:46:59;5.57;;;4.67;;
2860;SDS011;1438;50.922;6.704;2023-05-10T10:49:25;7.60;;;4.00;;
2860;SDS011;1438;50.922;6.704;2023-05-10T10:54:58;4.40;;;4.00;;
2860;SDS011;1438;50.922;6.704;2023-05-10T10:57:25;3.50;;;3.00;;
2860;SDS011;1438;50.922;6.704;2023-05-10T10:59:53;5.53;;;4.20;;
2860;SDS011;1438;50.922;6.704;2023-05-10T11:07:57;4.93;;;3.40;;
2860;SDS011;1438;50.922;6.704;2023-05-10T11:10:24;3.50;;;3.17;;
2860;SDS011;1438;50.922;6.704;2023-05-10T11:13:04;4.07;;;3.40;;
2860;SDS011;1438;50.922;6.704;2023-05-10T11:17:56;3.80;;;3.40;;
2860;SDS011;1438;50.922;6.704;2023-05-10T11:20:22;4.17;;;3.77;;
2860;SDS011;1438;50.922;6.704;2023-05-10T11:22:53;3.50;;;2.83;;
2860;SDS011;1438;50.922;6.704;2023-05-10T11:25:23;4.00;;;3.00;;
2860;SDS011;1438;50.922;6.704;2023-05-10T11:27:51;3.40;;;3.10;;
2860;SDS011;1438;50.922;6.704;2023-05-10T11:30:18;4.80;;;2.80;;
2860;SDS011;1438;50.922;6.704;2023-05-10T11:32:44;3.13;;;2.20;;
2860;SDS011;1438;50.922;6.704;2023-05-10T11:35:10;2.80;;;2.60;;
2860;SDS011;1438;50.922;6.704;2023-05-10T11:37:38;2.47;;;2.17;;
2860;SDS011;1438;50.922;6.704;2023-05-10T11:40:09;2.97;;;2.73;;
2860;SDS011;1438;50.922;6.704;2023-05-10T11:42:36;3.00;;;2.77;;
2860;SDS011;1438;50.922;6.704;2023-05-10T11:45:03;3.87;;;2.20;;
2860;SDS011;1438;50.922;6.704;2023-05-10T11:47:29;2.57;;;2.37;;
2860;SDS011;1438;50.922;6.704;2023-05-10T11:49:55;2.20;;;2.00;;
2860;SDS011;1438;50.922;6.704;2023-05-10T11:52:22;5.00;;;2.87;;
2860;SDS011;1438;50.922;6.704;2023-05-10T11:54:52;2.80;;;2.27;;
2860;SDS011;1438;50.922;6.704;2023-05-10T11:57:19;2.40;;;2.20;;
2860;SDS011;1438;50.922;6.704;2023-05-10T11:59:46;2.40;;;2.20;;
2860;SDS011;1438;50.922;6.704;2023-05-10T12:02:15;3.10;;;2.47;;
2860;SDS011;1438;50.922;6.704;2023-05-10T12:04:41;2.40;;;2.20;;
2860;SDS011;1438;50.922;6.704;2023-05-10T12:07:08;3.13;;;2.67;;
2860;SDS011;1438;50.922;6.704;2023-05-10T12:09:35;3.13;;;1.80;;
2860;SDS011;1438;50.922;6.704;2023-05-10T12:12:01;2.87;;;1.80;;
2860;SDS011;1438;50.922;6.704;2023-05-10T12:14:27;2.60;;;2.27;;
2860;SDS011;1438;50.922;6.704;2023-05-10T12:16:58;2.90;;;2.70;;
2860;SDS011;1438;50.922;6.704;2023-05-10T12:19:24;2.77;;;2.47;;
2860;SDS011;1438;50.922;6.704;2023-05-10T12:21:50;2.40;;;2.20;;
2860;SDS011;1438;50.922;6.704;2023-05-10T12:24:17;3.40;;;2.27;;
2860;SDS011;1438;50.922;6.704;2023-05-10T12:26:45;2.83;;;2.60;;
2860;SDS011;1438;50.922;6.704;2023-05-10T12:29:15;2.40;;;2.20;;
2860;SDS011;1438;50.922;6.704;2023-05-10T12:31:54;2.30;;;1.83;;
2860;SDS011;1438;50.922;6.704;2023-05-10T12:34:29;2.43;;;2.10;;
2860;SDS011;1438;50.922;6.704;2023-05-10T12:36:55;2.70;;;1.53;;
2860;SDS011;1438;50.922;6.704;2023-05-10T12:39:23;2.00;;;1.90;;
2860;SDS011;1438;50.922;6.704;2023-05-10T12:41:50;2.00;;;1.77;;
2860;SDS011;1438;50.922;6.704;2023-05-10T12:44:16;1.83;;;1.30;;
2860;SDS011;1438;50.922;6.704;2023-05-10T12:46:42;2.37;;;1.43;;
2860;SDS011;1438;50.922;6.704;2023-05-10T12:49:08;3.20;;;1.60;;
2860;SDS011;1438;50.922;6.704;2023-05-10T12:51:35;1.67;;;1.03;;
2860;SDS011;1438;50.922;6.704;2023-05-10T12:54:02;1.53;;;1.10;;
2860;SDS011;1438;50.922;6.704;2023-05-10T12:56:28;2.63;;;1.20;;
2860;SDS011;1438;50.922;6.704;2023-05-10T12:58:54;2.07;;;1.23;;
2860;SDS011;1438;50.922;6.704;2023-05-10T13:01:20;3.73;;;0.97;;
2860;SDS011;1438;50.922;6.704;2023-05-10T13:03:46;1.00;;;0.90;;
2860;SDS011;1438;50.922;6.704;2023-05-10T13:06:13;2.93;;;1.10;;
2860;SDS011;1438;50.922;6.704;2023-05-10T13:08:39;1.17;;;1.00;;
2860;SDS011;1438;50.922;6.704;2023-05-10T13:11:05;2.53;;;0.90;;
2860;SDS011;1438;50.922;6.704;2023-05-10T13:13:31;1.60;;;1.10;;
2860;SDS011;1438;50.922;6.704;2023-05-10T13:15:57;1.37;;;1.00;;
2860;SDS011;1438;50.922;6.704;2023-05-10T13:18:23;1.30;;;0.97;;
2860;SDS011;1438;50.922;6.704;2023-05-10T13:20:51;4.33;;;1.27;;
2860;SDS011;1438;50.922;6.704;2023-05-10T13:23:17;1.30;;;1.20;;
2860;SDS011;1438;50.922;6.704;2023-05-10T13:25:43;1.40;;;1.23;;
2860;SDS011;1438;50.922;6.704;2023-05-10T13:28:09;1.33;;;1.23;;
2860;SDS011;1438;50.922;6.704;2023-05-10T13:30:35;2.53;;;1.40;;
2860;SDS011;1438;50.922;6.704;2023-05-10T13:33:01;1.27;;;1.00;;
2860;SDS011;1438;50.922;6.704;2023-05-10T13:35:27;1.20;;;1.10;;
2860;SDS011;1438;50.922;6.704;2023-05-10T13:37:53;1.60;;;1.50;;
2860;SDS011;1438;50.922;6.704;2023-05-10T13:40:21;1.87;;;1.60;;
2860;SDS011;1438;50.922;6.704;2023-05-10T13:42:47;2.10;;;1.90;;
2860;SDS011;1438;50.922;6.704;2023-05-10T13:45:13;2.47;;;1.50;;
2860;SDS011;1438;50.922;6.704;2023-05-10T13:47:39;3.90;;;1.80;;
2860;SDS011;1438;50.922;6.704;2023-05-10T13:50:06;2.33;;;1.60;;
2860;SDS011;1438;50.922;6.704;2023-05-10T13:52:32;1.73;;;1.37;;
2860;SDS011;1438;50.922;6.704;2023-05-10T13:54:58;1.70;;;1.27;;
2860;SDS011;1438;50.922;6.704;2023-05-10T13:57:24;2.27;;;1.80;;
2860;SDS011;1438;50.922;6.704;2023-05-10T13:59:51;2.20;;;1.50;;
2860;SDS011;1438;50.922;6.704;2023-05-10T14:02:17;2.70;;;1.83;;
2860;SDS011;1438;50.922;6.704;2023-05-10T14:04:43;3.57;;;2.00;;
2860;SDS011;1438;50.922;6.704;2023-05-10T14:07:09;3.20;;;2.20;;
2860;SDS011;1438;50.922;6.704;2023-05-10T14:09:35;3.67;;;2.27;;
2860;SDS011;1438;50.922;6.704;2023-05-10T14:12:01;2.70;;;2.27;;
2860;SDS011;1438;50.922;6.704;2023-05-10T14:14:27;2.47;;;2.00;;
2860;SDS011;1438;50.922;6.704;2023-05-10T14:16:54;3.83;;;2.00;;
2860;SDS011;1438;50.922;6.704;2023-05-10T14:19:20;2.80;;;2.10;;
2860;SDS011;1438;50.922;6.704;2023-05-10T14:21:46;3.20;;;2.63;;
2860;SDS011;1438;50.922;6.704;2023-05-10T14:24:12;3.50;;;2.50;;
2860;SDS011;1438;50.922;6.704;2023-05-10T14:26:38;4.67;;;2.67;;
2860;SDS011;1438;50.922;6.704;2023-05-10T14:29:04;2.43;;;2.13;;
2860;SDS011;1438;50.922;6.704;2023-05-10T14:31:31;2.93;;;2.30;;
2860;SDS011;1438;50.922;6.704;2023-05-10T14:33:57;2.73;;;2.27;;
2860;SDS011;1438;50.922;6.704;2023-05-10T14:36:24;4.70;;;2.50;;
2860;SDS011;1438;50.922;6.704;2023-05-10T14:38:50;3.97;;;3.10;;
2860;SDS011;1438;50.922;6.704;2023-05-10T14:41:17;5.23;;;2.93;;
2860;SDS011;1438;50.922;6.704;2023-05-10T14:43:43;2.87;;;2.67;;
2860;SDS011;1438;50.922;6.704;2023-05-10T14:46:09;3.37;;;2.20;;
2860;SDS011;1438;50.922;6.704;2023-05-10T14:48:35;3.17;;;2.27;;
2860;SDS011;1438;50.922;6.704;2023-05-10T14:51:01;3.60;;;2.50;;
2860;SDS011;1438;50.922;6.704;2023-05-10T14:53:28;3.53;;;2.30;;
2860;SDS011;1438;50.922;6.704;2023-05-10T14:55:54;2.77;;;2.30;;
2860;SDS011;1438;50.922;6.704;2023-05-10T14:58:20;3.60;;;2.60;;
2860;SDS011;1438;50.922;6.704;2023-05-10T15:00:46;3.33;;;2.13;;
2860;SDS011;1438;50.922;6.704;2023-05-10T15:03:12;2.70;;;2.00;;
2860;SDS011;1438;50.922;6.704;2023-05-10T15:05:38;3.00;;;2.03;;
2860;SDS011;1438;50.922;6.704;2023-05-10T15:08:04;2.73;;;2.20;;
2860;SDS011;1438;50.922;6.704;2023-05-10T15:10:31;3.67;;;2.23;;
2860;SDS011;1438;50.922;6.704;2023-05-10T15:12:57;2.67;;;1.87;;
2860;SDS011;1438;50.922;6.704;2023-05-10T15:15:23;3.03;;;2.10;;
2860;SDS011;1438;50.922;6.704;2023-05-10T15:17:49;2.90;;;2.10;;
2860;SDS011;1438;50.922;6.704;2023-05-10T15:20:15;6.27;;;1.90;;
2860;SDS011;1438;50.922;6.704;2023-05-10T15:22:42;6.63;;;2.17;;
2860;SDS011;1438;50.922;6.704;2023-05-10T15:25:08;2.93;;;2.10;;
2860;SDS011;1438;50.922;6.704;2023-05-10T15:27:34;2.10;;;1.90;;